sensor_id;sensor_type;location;lat;lon;timestamp;pressure;altitude;pressure_sealevel;temperature;humidity
62436;BME280;48480;50.252;18.848;2023-07-13T00:00:01;98333.77;;;20.46;82.13
62436;BME280;48480;50.252;18.848;2023-07-13T00:02:47;98338.54;;;20.48;83.02
62436;BME280;48480;50.252;18.848;2023-07-13T00:05:32;98353.40;;;20.48;83.29
62436;BME280;48480;50.252;18.848;2023-07-13T00:08:16;98366.40;;;20.47;83.08
62436;BME280;48480;50.252;18.848;2023-07-13T00:11:02;98362.67;;;20.50;83.13
62436;BME280;48480;50.252;18.848;2023-07-13T00:13:47;98350.30;;;20.53;82.26
62436;BME280;48480;50.252;18.848;2023-07-13T00:16:33;98348.20;;;20.53;81.93
62436;BME280;48480;50.252;18.848;2023-07-13T00:19:26;98360.27;;;20.52;82.15
62436;BME280;48480;50.252;18.848;2023-07-13T00:22:10;98369.14;;;20.51;82.53
62436;BME280;48480;50.252;18.848;2023-07-13T00:24:55;98369.03;;;20.45;83.32
62436;BME280;48480;50.252;18.848;2023-07-13T00:27:43;98358.05;;;20.42;83.07
62436;BME280;48480;50.252;18.848;2023-07-13T00:30:28;98348.32;;;20.40;82.94
62436;BME280;48480;50.252;18.848;2023-07-13T00:33:12;98339.92;;;20.43;82.38
62436;BME280;48480;50.252;18.848;2023-07-13T00:35:57;98342.26;;;20.40;82.04
62436;BME280;48480;50.252;18.848;2023-07-13T00:38:42;98330.70;;;20.34;82.24
62436;BME280;48480;50.252;18.848;2023-07-13T00:41:27;98321.34;;;20.28;82.14
62436;BME280;48480;50.252;18.848;2023-07-13T00:44:15;98317.27;;;20.18;82.08
62436;BME280;48480;50.252;18.848;2023-07-13T00:47:00;98331.00;;;20.11;82.01
62436;BME280;48480;50.252;18.848;2023-07-13T00:49:44;98338.48;;;20.14;82.19
62436;BME280;48480;50.252;18.848;2023-07-13T00:52:29;98335.16;;;20.19;81.72
62436;BME280;48480;50.252;18.848;2023-07-13T00:55:16;98330.05;;;20.26;81.27
62436;BME280;48480;50.252;18.848;2023-07-13T00:58:01;98326.17;;;20.32;81.66
62436;BME280;48480;50.252;18.848;2023-07-13T01:00:46;98314.83;;;20.33;82.16
62436;BME280;48480;50.252;18.848;2023-07-13T01:03:34;98306.72;;;20.30;82.18
62436;BME280;48480;50.252;18.848;2023-07-13T01:06:19;98301.13;;;20.32;81.44
62436;BME280;48480;50.252;18.848;2023-07-13T01:09:04;98288.80;;;20.24;79.76
62436;BME280;48480;50.252;18.848;2023-07-13T01:11:48;98290.98;;;20.24;79.47
62436;BME280;48480;50.252;18.848;2023-07-13T01:14:33;98303.35;;;20.22;80.96
62436;BME280;48480;50.252;18.848;2023-07-13T01:17:17;98324.44;;;20.23;81.71
62436;BME280;48480;50.252;18.848;2023-07-13T01:20:01;98328.71;;;20.22;82.63
62436;BME280;48480;50.252;18.848;2023-07-13T01:22:45;98326.88;;;20.28;82.67
62436;BME280;48480;50.252;18.848;2023-07-13T01:25:30;98329.93;;;20.33;82.93
62436;BME280;48480;50.252;18.848;2023-07-13T01:28:14;98334.14;;;20.35;83.19
62436;BME280;48480;50.252;18.848;2023-07-13T01:31:01;98330.30;;;20.30;83.55
62436;BME280;48480;50.252;18.848;2023-07-13T01:33:45;98322.81;;;20.25;84.07
62436;BME280;48480;50.252;18.848;2023-07-13T01:36:30;98321.62;;;20.19;84.00
62436;BME280;48480;50.252;18.848;2023-07-13T01:39:15;98345.83;;;20.22;84.32
62436;BME280;48480;50.252;18.848;2023-07-13T01:42:01;98375.05;;;20.16;84.86
62436;BME280;48480;50.252;18.848;2023-07-13T01:44:46;98370.60;;;20.09;85.32
62436;BME280;48480;50.252;18.848;2023-07-13T01:47:30;98364.80;;;20.05;85.58
62436;BME280;48480;50.252;18.848;2023-07-13T01:50:15;98355.20;;;19.97;85.24
62436;BME280;48480;50.252;18.848;2023-07-13T01:52:59;98340.14;;;19.91;85.08
62436;BME280;48480;50.252;18.848;2023-07-13T01:55:44;98324.80;;;19.86;84.78
62436;BME280;48480;50.252;18.848;2023-07-13T01:58:28;98317.98;;;19.90;84.65
62436;BME280;48480;50.252;18.848;2023-07-13T02:01:12;98292.08;;;19.89;84.34
62436;BME280;48480;50.252;18.848;2023-07-13T02:03:56;98261.24;;;19.81;84.15
62436;BME280;48480;50.252;18.848;2023-07-13T02:06:40;98257.52;;;19.82;84.47
62436;BME280;48480;50.252;18.848;2023-07-13T02:09:25;98243.64;;;19.77;84.93
62436;BME280;48480;50.252;18.848;2023-07-13T02:12:09;98229.10;;;19.74;84.91
62436;BME280;48480;50.252;18.848;2023-07-13T02:14:54;98242.41;;;19.67;84.07
62436;BME280;48480;50.252;18.848;2023-07-13T02:17:38;98262.52;;;19.62;84.34
62436;BME280;48480;50.252;18.848;2023-07-13T02:20:22;98252.55;;;19.62;84.59
62436;BME280;48480;50.252;18.848;2023-07-13T02:23:07;98250.41;;;19.65;84.61
62436;BME280;48480;50.252;18.848;2023-07-13T02:25:58;98242.61;;;19.62;84.60
62436;BME280;48480;50.252;18.848;2023-07-13T02:28:42;98229.46;;;19.57;84.60
62436;BME280;48480;50.252;18.848;2023-07-13T02:31:26;98218.08;;;19.51;84.39
62436;BME280;48480;50.252;18.848;2023-07-13T02:34:11;98216.59;;;19.50;84.26
62436;BME280;48480;50.252;18.848;2023-07-13T02:36:56;98230.83;;;19.49;84.62
62436;BME280;48480;50.252;18.848;2023-07-13T02:39:40;98237.56;;;19.46;84.96
62436;BME280;48480;50.252;18.848;2023-07-13T02:42:25;98236.46;;;19.45;85.22
62436;BME280;48480;50.252;18.848;2023-07-13T02:45:09;98233.73;;;19.43;85.26
62436;BME280;48480;50.252;18.848;2023-07-13T02:47:54;98233.66;;;19.45;85.95
62436;BME280;48480;50.252;18.848;2023-07-13T02:50:39;98228.00;;;19.47;85.78
62436;BME280;48480;50.252;18.848;2023-07-13T02:53:24;98214.65;;;19.53;85.42
62436;BME280;48480;50.252;18.848;2023-07-13T02:56:09;98210.10;;;19.57;84.77
62436;BME280;48480;50.252;18.848;2023-07-13T02:58:53;98225.90;;;19.60;84.70
62436;BME280;48480;50.252;18.848;2023-07-13T03:01:38;98233.41;;;19.57;84.63
62436;BME280;48480;50.252;18.848;2023-07-13T03:04:23;98252.54;;;19.57;85.15
62436;BME280;48480;50.252;18.848;2023-07-13T03:07:08;98262.40;;;19.54;85.47
62436;BME280;48480;50.252;18.848;2023-07-13T03:09:56;98277.94;;;19.53;85.67
62436;BME280;48480;50.252;18.848;2023-07-13T03:12:41;98282.69;;;19.57;85.96
62436;BME280;48480;50.252;18.848;2023-07-13T03:15:25;98296.11;;;19.64;86.13
62436;BME280;48480;50.252;18.848;2023-07-13T03:18:09;98309.04;;;19.68;86.22
62436;BME280;48480;50.252;18.848;2023-07-13T03:20:53;98314.31;;;19.74;86.34
62436;BME280;48480;50.252;18.848;2023-07-13T03:23:37;98321.10;;;19.78;86.23
62436;BME280;48480;50.252;18.848;2023-07-13T03:26:22;98297.68;;;19.63;86.03
62436;BME280;48480;50.252;18.848;2023-07-13T03:29:06;98329.69;;;19.84;85.99
62436;BME280;48480;50.252;18.848;2023-07-13T03:31:50;98326.06;;;19.91;86.07
62436;BME280;48480;50.252;18.848;2023-07-13T03:34:35;98324.10;;;20.00;86.04
62436;BME280;48480;50.252;18.848;2023-07-13T03:37:19;98318.20;;;20.03;85.91
62436;BME280;48480;50.252;18.848;2023-07-13T03:40:03;98320.02;;;20.08;85.55
62436;BME280;48480;50.252;18.848;2023-07-13T03:42:48;98323.21;;;20.09;85.65
62436;BME280;48480;50.252;18.848;2023-07-13T03:45:32;98325.25;;;20.11;85.78
62436;BME280;48480;50.252;18.848;2023-07-13T03:48:17;98327.95;;;20.10;85.27
62436;BME280;48480;50.252;18.848;2023-07-13T03:51:01;98328.48;;;20.06;85.36
62436;BME280;48480;50.252;18.848;2023-07-13T03:53:47;98331.13;;;20.07;85.34
62436;BME280;48480;50.252;18.848;2023-07-13T03:56:33;98332.48;;;20.10;85.22
62436;BME280;48480;50.252;18.848;2023-07-13T03:59:18;98337.70;;;20.10;85.03
62436;BME280;48480;50.252;18.848;2023-07-13T04:02:03;98340.79;;;20.09;85.20
62436;BME280;48480;50.252;18.848;2023-07-13T04:04:48;98344.29;;;20.08;85.12
62436;BME280;48480;50.252;18.848;2023-07-13T04:07:32;98348.25;;;20.09;85.69
62436;BME280;48480;50.252;18.848;2023-07-13T04:10:16;98351.33;;;20.16;85.85
62436;BME280;48480;50.252;18.848;2023-07-13T04:13:00;98357.67;;;20.25;85.88
62436;BME280;48480;50.252;18.848;2023-07-13T04:15:44;98358.88;;;20.34;85.97
62436;BME280;48480;50.252;18.848;2023-07-13T04:18:28;98356.89;;;20.42;85.75
62436;BME280;48480;50.252;18.848;2023-07-13T04:21:14;98357.84;;;20.47;85.53
62436;BME280;48480;50.252;18.848;2023-07-13T04:23:59;98354.88;;;20.48;85.51
62436;BME280;48480;50.252;18.848;2023-07-13T04:26:44;98357.62;;;20.53;85.36
62436;BME280;48480;50.252;18.848;2023-07-13T04:29:28;98350.17;;;20.57;85.18
62436;BME280;48480;50.252;18.848;2023-07-13T04:32:12;98344.52;;;20.61;84.60
62436;BME280;48480;50.252;18.848;2023-07-13T04:34:57;98339.79;;;20.67;84.91
62436;BME280;48480;50.252;18.848;2023-07-13T04:37:44;98329.29;;;20.72;84.95
62436;BME280;48480;50.252;18.848;2023-07-13T04:40:28;98318.63;;;20.77;84.85
62436;BME280;48480;50.252;18.848;2023-07-13T04:43:13;98313.48;;;20.74;84.92
62436;BME280;48480;50.252;18.848;2023-07-13T04:46:02;98324.80;;;20.83;85.22
62436;BME280;48480;50.252;18.848;2023-07-13T04:48:46;98319.44;;;20.87;85.34
62436;BME280;48480;50.252;18.848;2023-07-13T04:51:33;98322.40;;;21.04;85.16
62436;BME280;48480;50.252;18.848;2023-07-13T04:54:17;98322.41;;;21.16;84.80
62436;BME280;48480;50.252;18.848;2023-07-13T04:57:01;98319.77;;;21.35;84.06
62436;BME280;48480;50.252;18.848;2023-07-13T04:59:45;98309.07;;;21.65;82.83
62436;BME280;48480;50.252;18.848;2023-07-13T05:02:30;98307.26;;;21.78;82.39
62436;BME280;48480;50.252;18.848;2023-07-13T05:05:19;98281.81;;;21.81;81.29
62436;BME280;48480;50.252;18.848;2023-07-13T05:08:04;98310.48;;;22.21;80.45
62436;BME280;48480;50.252;18.848;2023-07-13T05:10:48;98312.41;;;22.61;79.74
62436;BME280;48480;50.252;18.848;2023-07-13T05:13:32;98315.67;;;23.02;78.52
62436;BME280;48480;50.252;18.848;2023-07-13T05:16:17;98310.73;;;23.62;76.58
62436;BME280;48480;50.252;18.848;2023-07-13T05:19:02;98321.70;;;24.33;74.47
62436;BME280;48480;50.252;18.848;2023-07-13T05:21:49;98319.63;;;24.99;72.08
62436;BME280;48480;50.252;18.848;2023-07-13T05:24:34;98299.02;;;25.43;68.81
62436;BME280;48480;50.252;18.848;2023-07-13T05:27:18;98322.36;;;26.11;67.49
62436;BME280;48480;50.252;18.848;2023-07-13T05:30:07;98322.66;;;26.50;65.38
62436;BME280;48480;50.252;18.848;2023-07-13T05:32:54;98318.33;;;26.70;64.20
62436;BME280;48480;50.252;18.848;2023-07-13T05:35:44;98316.13;;;26.97;62.67
62436;BME280;48480;50.252;18.848;2023-07-13T05:38:29;98314.44;;;27.15;61.78
62436;BME280;48480;50.252;18.848;2023-07-13T05:41:20;98313.98;;;27.25;61.22
62436;BME280;48480;50.252;18.848;2023-07-13T05:44:07;98311.31;;;27.21;60.59
62436;BME280;48480;50.252;18.848;2023-07-13T05:46:55;98308.25;;;27.04;60.84
62436;BME280;48480;50.252;18.848;2023-07-13T05:49:40;98302.48;;;26.85;61.96
62436;BME280;48480;50.252;18.848;2023-07-13T05:52:24;98298.60;;;26.73;61.79
62436;BME280;48480;50.252;18.848;2023-07-13T05:55:09;98291.45;;;26.63;61.84
62436;BME280;48480;50.252;18.848;2023-07-13T05:57:53;98289.92;;;26.49;62.67
62436;BME280;48480;50.252;18.848;2023-07-13T06:00:38;98289.91;;;26.34;63.03
62436;BME280;48480;50.252;18.848;2023-07-13T06:03:22;98296.56;;;26.21;62.92
62436;BME280;48480;50.252;18.848;2023-07-13T06:06:08;98302.98;;;26.10;63.62
62436;BME280;48480;50.252;18.848;2023-07-13T06:08:54;98298.02;;;26.07;63.50
62436;BME280;48480;50.252;18.848;2023-07-13T06:11:41;98299.34;;;26.00;63.17
62436;BME280;48480;50.252;18.848;2023-07-13T06:14:27;98292.66;;;26.04;63.57
62436;BME280;48480;50.252;18.848;2023-07-13T06:17:29;98290.34;;;26.11;64.16
62436;BME280;48480;50.252;18.848;2023-07-13T06:20:14;98294.63;;;26.16;63.44
62436;BME280;48480;50.252;18.848;2023-07-13T06:23:02;98294.27;;;26.26;63.44
62436;BME280;48480;50.252;18.848;2023-07-13T06:25:46;98296.77;;;26.33;62.80
62436;BME280;48480;50.252;18.848;2023-07-13T06:31:24;98292.60;;;26.26;62.86
62436;BME280;48480;50.252;18.848;2023-07-13T06:34:17;98286.66;;;26.28;63.20
62436;BME280;48480;50.252;18.848;2023-07-13T06:37:01;98296.46;;;26.48;63.00
62436;BME280;48480;50.252;18.848;2023-07-13T06:39:52;98305.03;;;26.51;62.86
62436;BME280;48480;50.252;18.848;2023-07-13T06:42:39;98310.11;;;26.49;63.00
62436;BME280;48480;50.252;18.848;2023-07-13T06:45:23;98308.86;;;26.37;63.43
62436;BME280;48480;50.252;18.848;2023-07-13T06:48:19;98302.69;;;26.13;63.47
62436;BME280;48480;50.252;18.848;2023-07-13T06:53:54;98311.58;;;25.87;63.83
62436;BME280;48480;50.252;18.848;2023-07-13T06:56:47;98313.88;;;25.69;63.90
62436;BME280;48480;50.252;18.848;2023-07-13T06:59:35;98317.36;;;25.49;63.65
62436;BME280;48480;50.252;18.848;2023-07-13T07:02:23;98325.14;;;25.34;63.61
62436;BME280;48480;50.252;18.848;2023-07-13T07:05:12;98334.52;;;25.15;64.03
62436;BME280;48480;50.252;18.848;2023-07-13T07:08:01;98341.34;;;25.05;64.72
62436;BME280;48480;50.252;18.848;2023-07-13T07:10:46;98313.98;;;24.73;65.85
62436;BME280;48480;50.252;18.848;2023-07-13T07:13:31;98355.33;;;24.87;65.83
62436;BME280;48480;50.252;18.848;2023-07-13T07:16:16;98357.92;;;24.63;66.16
62436;BME280;48480;50.252;18.848;2023-07-13T07:19:00;98342.61;;;24.32;67.13
62436;BME280;48480;50.252;18.848;2023-07-13T07:21:44;98369.80;;;24.39;68.06
62436;BME280;48480;50.252;18.848;2023-07-13T07:24:29;98378.17;;;24.25;68.83
62436;BME280;48480;50.252;18.848;2023-07-13T07:27:13;98368.23;;;24.04;69.79
62436;BME280;48480;50.252;18.848;2023-07-13T07:29:58;98376.27;;;23.98;70.24
62436;BME280;48480;50.252;18.848;2023-07-13T07:32:49;98381.80;;;23.85;70.85
62436;BME280;48480;50.252;18.848;2023-07-13T07:35:34;98383.96;;;23.80;71.52
62436;BME280;48480;50.252;18.848;2023-07-13T07:38:18;98389.06;;;23.77;72.16
62436;BME280;48480;50.252;18.848;2023-07-13T07:41:05;98387.92;;;23.71;72.68
62436;BME280;48480;50.252;18.848;2023-07-13T07:43:50;98383.90;;;23.66;73.10
62436;BME280;48480;50.252;18.848;2023-07-13T07:46:34;98381.13;;;23.62;73.41
62436;BME280;48480;50.252;18.848;2023-07-13T07:49:19;98378.17;;;23.58;73.56
62436;BME280;48480;50.252;18.848;2023-07-13T07:52:04;98378.70;;;23.62;73.50
62436;BME280;48480;50.252;18.848;2023-07-13T07:54:48;98378.55;;;23.70;73.08
62436;BME280;48480;50.252;18.848;2023-07-13T07:57:34;98377.71;;;23.76;73.55
62436;BME280;48480;50.252;18.848;2023-07-13T08:00:32;98376.89;;;23.84;73.70
62436;BME280;48480;50.252;18.848;2023-07-13T08:03:22;98373.95;;;23.96;73.48
62436;BME280;48480;50.252;18.848;2023-07-13T08:06:06;98375.84;;;24.09;71.67
62436;BME280;48480;50.252;18.848;2023-07-13T08:08:52;98375.34;;;24.21;70.53
62436;BME280;48480;50.252;18.848;2023-07-13T08:11:43;98373.66;;;24.36;70.40
62436;BME280;48480;50.252;18.848;2023-07-13T08:17:11;98361.92;;;24.62;69.16
62436;BME280;48480;50.252;18.848;2023-07-13T08:19:55;98360.55;;;24.77;68.45
62436;BME280;48480;50.252;18.848;2023-07-13T08:22:39;98354.73;;;24.95;67.78
62436;BME280;48480;50.252;18.848;2023-07-13T08:25:24;98352.23;;;25.16;66.72
62436;BME280;48480;50.252;18.848;2023-07-13T08:28:08;98348.27;;;25.35;65.32
62436;BME280;48480;50.252;18.848;2023-07-13T08:30:52;98348.06;;;25.52;63.89
62436;BME280;48480;50.252;18.848;2023-07-13T08:33:40;98349.93;;;25.62;61.94
62436;BME280;48480;50.252;18.848;2023-07-13T08:36:29;98356.59;;;25.72;60.90
62436;BME280;48480;50.252;18.848;2023-07-13T08:41:57;98357.59;;;25.86;60.54
62436;BME280;48480;50.252;18.848;2023-07-13T08:45:13;98360.96;;;25.91;59.39
62436;BME280;48480;50.252;18.848;2023-07-13T08:48:25;98363.35;;;25.89;59.28
62436;BME280;48480;50.252;18.848;2023-07-13T08:51:21;98358.46;;;25.85;59.68
62436;BME280;48480;50.252;18.848;2023-07-13T08:54:32;98361.23;;;25.80;60.28
62436;BME280;48480;50.252;18.848;2023-07-13T08:57:29;98362.70;;;25.72;60.93
62436;BME280;48480;50.252;18.848;2023-07-13T09:00:17;98368.39;;;25.61;61.36
62436;BME280;48480;50.252;18.848;2023-07-13T09:03:05;98369.17;;;25.47;61.34
62436;BME280;48480;50.252;18.848;2023-07-13T09:05:59;98377.08;;;25.28;61.88
62436;BME280;48480;50.252;18.848;2023-07-13T09:09:17;98376.13;;;25.17;62.79
62436;BME280;48480;50.252;18.848;2023-07-13T09:15:06;98384.73;;;24.74;64.02
62436;BME280;48480;50.252;18.848;2023-07-13T09:18:35;98389.79;;;24.58;64.67
62436;BME280;48480;50.252;18.848;2023-07-13T09:23:58;98400.40;;;24.26;65.41
62436;BME280;48480;50.252;18.848;2023-07-13T09:29:40;98406.64;;;23.97;64.49
62436;BME280;48480;50.252;18.848;2023-07-13T09:32:37;98413.15;;;23.80;64.18
62436;BME280;48480;50.252;18.848;2023-07-13T09:35:31;98421.72;;;23.63;64.49
62436;BME280;48480;50.252;18.848;2023-07-13T09:38:29;98429.05;;;23.45;64.46
62436;BME280;48480;50.252;18.848;2023-07-13T09:41:40;98445.81;;;23.12;64.86
62436;BME280;48480;50.252;18.848;2023-07-13T09:44:35;98457.40;;;22.73;66.13
62436;BME280;48480;50.252;18.848;2023-07-13T09:53:41;98492.73;;;21.62;67.23
62436;BME280;48480;50.252;18.848;2023-07-13T09:56:30;98488.19;;;21.27;68.59
62436;BME280;48480;50.252;18.848;2023-07-13T09:59:23;98490.62;;;20.85;70.00
62436;BME280;48480;50.252;18.848;2023-07-13T10:02:25;98482.80;;;20.53;71.14
62436;BME280;48480;50.252;18.848;2023-07-13T10:05:14;98480.30;;;20.24;72.28
62436;BME280;48480;50.252;18.848;2023-07-13T10:08:00;98479.30;;;20.03;73.29
62436;BME280;48480;50.252;18.848;2023-07-13T10:10:54;98477.88;;;19.90;74.04
62436;BME280;48480;50.252;18.848;2023-07-13T10:13:53;98487.60;;;19.74;74.78
62436;BME280;48480;50.252;18.848;2023-07-13T10:16:44;98492.73;;;19.58;75.48
62436;BME280;48480;50.252;18.848;2023-07-13T10:19:31;98501.50;;;19.49;76.00
62436;BME280;48480;50.252;18.848;2023-07-13T10:22:44;98506.20;;;19.46;76.22
62436;BME280;48480;50.252;18.848;2023-07-13T10:25:34;98505.17;;;19.43;76.44
62436;BME280;48480;50.252;18.848;2023-07-13T10:28:40;98501.73;;;19.40;76.93
62436;BME280;48480;50.252;18.848;2023-07-13T10:31:44;98500.96;;;19.42;77.48
62436;BME280;48480;50.252;18.848;2023-07-13T10:34:34;98501.92;;;19.44;77.94
62436;BME280;48480;50.252;18.848;2023-07-13T10:37:29;98500.90;;;19.43;77.72
62436;BME280;48480;50.252;18.848;2023-07-13T10:44:43;98500.35;;;19.35;78.09
62436;BME280;48480;50.252;18.848;2023-07-13T10:47:28;98499.88;;;19.33;78.50
62436;BME280;48480;50.252;18.848;2023-07-13T10:50:23;98498.75;;;19.37;78.98
62436;BME280;48480;50.252;18.848;2023-07-13T10:53:32;98502.72;;;19.46;78.58
62436;BME280;48480;50.252;18.848;2023-07-13T10:56:28;98503.77;;;19.50;79.03
62436;BME280;48480;50.252;18.848;2023-07-13T10:59:17;98506.19;;;19.52;79.07
62436;BME280;48480;50.252;18.848;2023-07-13T11:04:57;98510.05;;;19.55;78.74
62436;BME280;48480;50.252;18.848;2023-07-13T11:20:31;98522.72;;;19.65;79.07
62436;BME280;48480;50.252;18.848;2023-07-13T11:23:34;98523.95;;;19.71;79.38
62436;BME280;48480;50.252;18.848;2023-07-13T11:26:59;98514.89;;;19.74;79.35
62436;BME280;48480;50.252;18.848;2023-07-13T11:36:27;98530.00;;;19.93;79.00
62436;BME280;48480;50.252;18.848;2023-07-13T11:44:52;98544.17;;;20.13;80.35
62436;BME280;48480;50.252;18.848;2023-07-13T11:47:33;98516.02;;;20.04;78.85
62436;BME280;48480;50.252;18.848;2023-07-13T11:50:19;98547.07;;;20.36;79.23
62436;BME280;48480;50.252;18.848;2023-07-13T11:53:10;98551.47;;;20.43;78.07
62436;BME280;48480;50.252;18.848;2023-07-13T11:55:54;98556.25;;;20.46;77.97
62436;BME280;48480;50.252;18.848;2023-07-13T12:01:31;98555.11;;;20.51;77.68
62436;BME280;48480;50.252;18.848;2023-07-13T12:04:52;98553.71;;;20.52;76.77
62436;BME280;48480;50.252;18.848;2023-07-13T12:13:52;98563.78;;;20.77;75.64
62436;BME280;48480;50.252;18.848;2023-07-13T12:16:55;98567.42;;;20.87;75.30
62436;BME280;48480;50.252;18.848;2023-07-13T12:37:56;98570.05;;;21.17;76.43
62436;BME280;48480;50.252;18.848;2023-07-13T12:40:55;98573.02;;;21.16;76.72
62436;BME280;48480;50.252;18.848;2023-07-13T12:44:03;98575.73;;;21.11;76.69
62436;BME280;48480;50.252;18.848;2023-07-13T12:47:14;98580.13;;;21.21;77.38
62436;BME280;48480;50.252;18.848;2023-07-13T12:50:03;98585.56;;;21.36;77.36
62436;BME280;48480;50.252;18.848;2023-07-13T12:52:55;98577.23;;;21.41;76.84
62436;BME280;48480;50.252;18.848;2023-07-13T12:55:50;98570.30;;;21.41;76.80
62436;BME280;48480;50.252;18.848;2023-07-13T12:58:39;98568.86;;;21.46;77.10
62436;BME280;48480;50.252;18.848;2023-07-13T13:01:46;98572.96;;;21.59;75.42
62436;BME280;48480;50.252;18.848;2023-07-13T13:04:33;98580.39;;;21.67;75.15
62436;BME280;48480;50.252;18.848;2023-07-13T13:07:22;98579.39;;;21.75;74.52
62436;BME280;48480;50.252;18.848;2023-07-13T13:10:28;98578.14;;;21.81;73.74
62436;BME280;48480;50.252;18.848;2023-07-13T13:13:16;98581.84;;;21.99;73.97
62436;BME280;48480;50.252;18.848;2023-07-13T13:18:55;98589.77;;;22.44;71.67
62436;BME280;48480;50.252;18.848;2023-07-13T13:21:50;98593.18;;;22.59;70.92
62436;BME280;48480;50.252;18.848;2023-07-13T13:27:23;98593.20;;;22.88;70.06
62436;BME280;48480;50.252;18.848;2023-07-13T13:30:02;98589.13;;;22.97;69.45
62436;BME280;48480;50.252;18.848;2023-07-13T13:32:47;98584.82;;;23.02;69.09
62436;BME280;48480;50.252;18.848;2023-07-13T13:35:32;98590.45;;;23.06;68.61
62436;BME280;48480;50.252;18.848;2023-07-13T13:38:20;98591.77;;;23.03;68.29
62436;BME280;48480;50.252;18.848;2023-07-13T13:43:58;98585.34;;;22.76;68.31
62436;BME280;48480;50.252;18.848;2023-07-13T13:46:51;98585.44;;;22.70;68.36
62436;BME280;48480;50.252;18.848;2023-07-13T13:49:43;98591.46;;;22.67;68.53
62436;BME280;48480;50.252;18.848;2023-07-13T13:55:38;98610.45;;;22.63;67.76
62436;BME280;48480;50.252;18.848;2023-07-13T13:58:29;98606.85;;;22.69;67.85
62436;BME280;48480;50.252;18.848;2023-07-13T14:04:20;98598.67;;;22.91;67.68
62436;BME280;48480;50.252;18.848;2023-07-13T14:07:14;98606.55;;;23.02;68.29
62436;BME280;48480;50.252;18.848;2023-07-13T14:09:59;98613.90;;;23.05;67.40
62436;BME280;48480;50.252;18.848;2023-07-13T14:12:54;98614.69;;;22.92;67.01
62436;BME280;48480;50.252;18.848;2023-07-13T14:15:40;98623.00;;;22.74;66.65
62436;BME280;48480;50.252;18.848;2023-07-13T14:18:29;98622.88;;;22.55;67.36
62436;BME280;48480;50.252;18.848;2023-07-13T14:21:26;98614.91;;;22.55;67.99
62436;BME280;48480;50.252;18.848;2023-07-13T14:24:11;98603.95;;;22.75;68.01
62436;BME280;48480;50.252;18.848;2023-07-13T14:26:59;98598.41;;;23.10;67.41
62436;BME280;48480;50.252;18.848;2023-07-13T14:29:46;98603.91;;;23.41;66.07
62436;BME280;48480;50.252;18.848;2023-07-13T14:32:33;98606.63;;;23.65;64.62
62436;BME280;48480;50.252;18.848;2023-07-13T14:35:28;98596.55;;;23.76;62.35
62436;BME280;48480;50.252;18.848;2023-07-13T14:38:19;98593.59;;;23.74;61.39
62436;BME280;48480;50.252;18.848;2023-07-13T14:41:04;98584.60;;;23.73;61.97
62436;BME280;48480;50.252;18.848;2023-07-13T14:43:59;98578.69;;;23.68;62.06
62436;BME280;48480;50.252;18.848;2023-07-13T14:46:57;98578.83;;;23.55;61.76
62436;BME280;48480;50.252;18.848;2023-07-13T14:52:39;98585.20;;;23.32;62.39
62436;BME280;48480;50.252;18.848;2023-07-13T14:55:28;98585.55;;;23.26;62.41
62436;BME280;48480;50.252;18.848;2023-07-13T14:58:34;98585.91;;;23.30;62.27
62436;BME280;48480;50.252;18.848;2023-07-13T15:01:22;98592.84;;;23.39;62.37
62436;BME280;48480;50.252;18.848;2023-07-13T15:04:07;98597.55;;;23.48;62.55
62436;BME280;48480;50.252;18.848;2023-07-13T15:07:02;98602.88;;;23.49;61.72
62436;BME280;48480;50.252;18.848;2023-07-13T15:09:54;98565.02;;;23.13;61.08
62436;BME280;48480;50.252;18.848;2023-07-13T15:13:11;98598.81;;;23.27;61.70
62436;BME280;48480;50.252;18.848;2023-07-13T15:16:00;98598.27;;;23.28;62.12
62436;BME280;48480;50.252;18.848;2023-07-13T15:18:45;98588.96;;;23.32;62.16
62436;BME280;48480;50.252;18.848;2023-07-13T15:21:31;98582.84;;;23.35;61.69
62436;BME280;48480;50.252;18.848;2023-07-13T15:24:21;98579.02;;;23.32;61.60
62436;BME280;48480;50.252;18.848;2023-07-13T15:27:11;98571.88;;;23.40;61.75
62436;BME280;48480;50.252;18.848;2023-07-13T15:30:39;98575.59;;;23.47;61.95
62436;BME280;48480;50.252;18.848;2023-07-13T15:33:29;98578.31;;;23.48;61.72
62436;BME280;48480;50.252;18.848;2023-07-13T15:36:27;98573.79;;;23.48;61.91
62436;BME280;48480;50.252;18.848;2023-07-13T15:39:15;98566.73;;;23.48;61.86
62436;BME280;48480;50.252;18.848;2023-07-13T15:42:30;98570.83;;;23.45;61.54
62436;BME280;48480;50.252;18.848;2023-07-13T15:45:27;98580.16;;;23.40;61.56
62436;BME280;48480;50.252;18.848;2023-07-13T15:48:20;98589.80;;;23.33;61.82
62436;BME280;48480;50.252;18.848;2023-07-13T15:51:28;98593.81;;;23.29;62.04
62436;BME280;48480;50.252;18.848;2023-07-13T15:54:31;98597.58;;;23.27;62.00
62436;BME280;48480;50.252;18.848;2023-07-13T15:57:20;98601.41;;;23.24;62.19
62436;BME280;48480;50.252;18.848;2023-07-13T16:00:28;98598.20;;;23.30;61.56
62436;BME280;48480;50.252;18.848;2023-07-13T16:03:25;98592.20;;;23.40;61.46
62436;BME280;48480;50.252;18.848;2023-07-13T16:09:20;98579.58;;;23.62;60.84
62436;BME280;48480;50.252;18.848;2023-07-13T16:12:13;98584.83;;;23.62;59.77
62436;BME280;48480;50.252;18.848;2023-07-13T16:14:58;98592.26;;;23.62;59.71
62436;BME280;48480;50.252;18.848;2023-07-13T16:17:54;98594.35;;;23.63;59.89
62436;BME280;48480;50.252;18.848;2023-07-13T16:20:53;98595.63;;;23.62;59.21
62436;BME280;48480;50.252;18.848;2023-07-13T16:23:49;98588.79;;;23.65;58.84
62436;BME280;48480;50.252;18.848;2023-07-13T16:26:36;98589.80;;;23.69;58.99
62436;BME280;48480;50.252;18.848;2023-07-13T16:29:42;98585.08;;;23.73;58.05